Time;durP1;ratioP1;P1;durP2;ratioP2;P2;SDS_P1;SDS_P2;PMS_P1;PMS_P2;Temp;Humidity;BMP_temperature;BMP_pressure;BME280_temperature;BME280_humidity;BME280_pressure;Samples;Min_cycle;Max_cycle;Signal;HPM_P1;HPM_P2
2021/08/20 00:01:50;;;;;;;9.52;3.67;;;17.80;99.90;;;18.23;92.60;100948.34;5036639;28;20606;-71
2021/08/20 00:04:17;;;;;;;8.00;2.80;;;17.80;99.90;;;18.23;92.60;100948.34;5036074;28;20216;-69
2021/08/20 00:06:44;;;;;;;8.75;3.35;;;17.80;99.90;;;18.22;92.29;100950.13;5020415;28;20217;-70
2021/08/20 00:09:11;;;;;;;7.97;2.90;;;17.80;99.90;;;18.20;92.33;100952.00;5020884;28;20220;-70
2021/08/20 00:11:40;;;;;;;8.18;3.08;;;17.80;99.90;;;18.20;92.22;100943.25;5021387;28;20197;-68
2021/08/20 00:14:09;;;;;;;9.52;3.53;;;17.80;99.90;;;18.21;92.20;100952.88;5014340;28;20189;-72
2021/08/20 00:16:37;;;;;;;9.57;3.60;;;17.80;99.90;;;18.20;92.38;100943.25;5038100;28;20260;-70
2021/08/20 00:19:04;;;;;;;8.07;3.13;;;17.80;99.90;;;18.20;92.27;100943.25;5039190;28;20213;-69
2021/08/20 00:21:30;;;;;;;10.02;3.67;;;17.80;99.90;;;18.19;91.97;100942.38;5011072;28;20197;-68
2021/08/20 00:23:57;;;;;;;8.90;3.53;;;17.80;99.90;;;18.19;92.33;100947.69;5036915;28;20271;-70
2021/08/20 00:26:24;;;;;;;8.48;3.33;;;17.80;99.90;;;18.18;92.02;100953.94;5037260;28;20194;-71
2021/08/20 00:28:52;;;;;;;9.65;3.40;;;17.80;99.90;;;18.20;92.21;100945.88;5019314;28;20630;-70
2021/08/20 00:31:19;;;;;;;8.80;3.35;;;17.80;99.90;;;18.21;92.22;100948.44;5036194;28;20666;-70
2021/08/20 00:33:46;;;;;;;9.95;3.42;;;17.80;99.90;;;18.22;91.86;100947.47;5036769;28;20209;-71
2021/08/20 00:36:14;;;;;;;11.07;3.60;;;17.80;99.90;;;18.22;92.08;100944.00;5016770;28;20206;-69
2021/08/20 00:38:41;;;;;;;8.73;3.28;;;17.80;99.90;;;18.21;91.74;100944.94;5037025;28;20201;-68
2021/08/20 00:41:10;;;;;;;9.35;3.53;;;17.80;99.90;;;18.21;91.75;100944.94;5025953;28;20194;-72
2021/08/20 00:43:38;;;;;;;9.27;3.10;;;17.80;99.90;;;18.22;92.04;100941.34;5022944;28;20192;-71
2021/08/20 00:46:08;;;;;;;9.27;3.33;;;17.80;99.90;;;18.20;91.79;100937.94;5016314;28;20588;-70
2021/08/20 00:48:36;;;;;;;7.68;2.83;;;17.80;99.90;;;18.19;91.80;100938.88;5025236;28;20217;-69
2021/08/20 00:51:08;;;;;;;10.77;3.17;;;17.80;99.90;;;18.19;91.65;100937.09;5015064;28;20240;-72
2021/08/20 00:53:37;;;;;;;8.15;3.03;;;17.80;99.90;;;18.20;91.71;100937.94;5022193;28;20621;-70
2021/08/20 00:56:06;;;;;;;8.30;2.90;;;17.80;99.90;;;18.22;91.65;100938.69;5011372;28;20204;-70
2021/08/20 00:58:36;;;;;;;9.32;2.92;;;17.80;99.90;;;18.23;91.67;100943.03;5016372;28;20697;-69
2021/08/20 01:01:05;;;;;;;9.48;3.08;;;17.80;99.90;;;18.23;91.27;100937.72;5007995;28;20204;-70
2021/08/20 01:03:34;;;;;;;8.93;2.90;;;17.80;99.90;;;18.25;91.50;100941.13;5015855;28;20561;-70
2021/08/20 01:06:04;;;;;;;8.68;3.13;;;17.80;99.90;;;18.24;91.73;100939.41;5004932;28;20294;-71
2021/08/20 01:08:32;;;;;;;8.73;2.97;;;17.80;99.90;;;18.20;91.48;100940.59;5006903;28;20731;-69
2021/08/20 01:11:01;;;;;;;9.07;3.65;;;17.70;99.90;;;18.14;91.80;100939.19;5009158;28;20273;-70
2021/08/20 01:13:33;;;;;;;8.90;3.40;;;17.70;99.90;;;18.09;92.08;100937.78;5007550;28;20660;-71
2021/08/20 01:16:01;;;;;;;9.02;3.85;;;17.60;99.90;;;18.07;92.53;100940.53;5010476;28;20221;-71
2021/08/20 01:18:30;;;;;;;9.55;3.80;;;17.50;99.90;;;18.04;92.40;100943.38;5031270;28;20221;-71
2021/08/20 01:21:10;;;;;;;10.80;3.70;;;17.40;99.90;;;18.03;92.80;100941.69;5014428;28;20284;-71
2021/08/20 01:23:39;;;;;;;8.60;3.20;;;17.40;99.90;;;18.01;92.92;100938.28;5003860;28;20554;-70
2021/08/20 01:26:08;;;;;;;8.10;3.28;;;17.40;99.90;;;18.00;92.99;100946.34;4996269;28;20186;-70
2021/08/20 01:28:35;;;;;;;9.13;3.28;;;17.30;99.90;;;18.00;93.04;100935.72;5014171;28;20726;-69
2021/08/20 01:31:06;;;;;;;8.00;3.30;;;17.30;99.90;;;17.99;93.16;100940.19;4999409;28;20787;-67
2021/08/20 01:33:34;;;;;;;9.82;3.03;;;17.30;99.90;;;17.99;93.47;100941.97;4999941;28;20200;-71
2021/08/20 01:36:01;;;;;;;9.13;3.42;;;17.30;99.90;;;17.99;93.04;100940.19;5016303;28;20198;-70
2021/08/20 01:38:28;;;;;;;9.05;3.60;;;17.30;99.90;;;17.99;92.79;100941.97;5002580;28;20213;-70
2021/08/20 01:40:56;;;;;;;8.82;3.10;;;17.30;99.90;;;18.01;93.05;100942.72;5013556;28;20197;-70
2021/08/20 01:43:25;;;;;;;10.23;3.42;;;17.30;99.90;;;18.02;93.23;100939.97;5015412;28;20189;-70
2021/08/20 01:45:52;;;;;;;9.93;3.10;;;17.30;99.90;;;18.04;93.04;100939.88;5015138;28;20777;-69
2021/08/20 01:48:19;;;;;;;8.35;3.40;;;17.30;99.90;;;18.03;92.55;100936.38;5016052;28;20217;-70
2021/08/20 01:50:47;;;;;;;9.45;3.88;;;17.30;99.90;;;18.05;92.90;100941.59;5010696;28;20646;-70
2021/08/20 01:53:15;;;;;;;8.88;3.17;;;17.40;99.90;;;18.04;92.68;100942.50;5010015;28;20189;-70
2021/08/20 01:55:45;;;;;;;9.73;3.55;;;17.30;99.90;;;18.02;92.60;100949.75;5015528;28;20185;-68
2021/08/20 01:58:12;;;;;;;10.02;3.03;;;17.30;99.90;;;17.99;92.55;100941.97;5015653;28;20221;-67
2021/08/20 02:00:42;;;;;;;7.97;3.08;;;17.30;99.90;;;17.97;92.43;100943.84;5018229;28;20670;-69
2021/08/20 02:03:10;;;;;;;7.60;2.80;;;17.30;99.90;;;17.99;92.60;100942.81;5034784;28;20189;-74
2021/08/20 02:05:37;;;;;;;9.13;3.28;;;17.30;99.90;;;18.00;92.10;100943.69;5027599;28;20186;-74
2021/08/20 02:08:06;;;;;;;7.63;2.80;;;17.30;99.90;;;18.00;92.00;100948.97;5028593;28;20216;-74
2021/08/20 02:10:35;;;;;;;7.68;2.60;;;17.40;99.90;;;18.01;92.41;100937.41;5039875;28;20182;-73
2021/08/20 02:13:01;;;;;;;8.40;3.08;;;17.40;99.90;;;18.00;92.45;100936.56;5024807;28;20182;-74
2021/08/20 02:15:31;;;;;;;8.35;2.83;;;17.40;99.90;;;18.01;92.24;100934.78;5028731;28;20200;-74
2021/08/20 02:17:59;;;;;;;7.75;2.90;;;17.40;99.90;;;18.01;92.37;100937.41;5031967;28;20252;-73
2021/08/20 02:20:27;;;;;;;7.57;2.88;;;17.40;99.90;;;18.03;92.13;100947.00;5021354;28;20190;-74
2021/08/20 02:22:54;;;;;;;8.32;2.70;;;17.50;99.90;;;18.02;92.06;100944.44;5044644;28;20238;-73
2021/08/20 02:25:21;;;;;;;7.93;2.80;;;17.50;99.90;;;18.03;91.99;100944.34;5055130;28;20192;-74
2021/08/20 02:27:50;;;;;;;8.13;2.83;;;17.50;99.90;;;18.05;92.36;100944.22;5039398;28;20249;-72
2021/08/20 02:30:17;;;;;;;8.02;3.10;;;17.50;99.90;;;18.06;92.46;100956.53;5042972;28;20193;-72
2021/08/20 02:32:50;;;;;;;9.73;3.20;;;17.60;99.90;;;18.05;92.25;100955.66;5022035;28;20205;-72
2021/08/20 02:35:19;;;;;;;7.78;3.10;;;17.60;99.90;;;18.06;92.26;100951.22;5025123;28;20221;-75
2021/08/20 02:37:46;;;;;;;8.38;2.80;;;17.60;99.90;;;18.06;92.33;100956.53;5036139;28;20222;-74
2021/08/20 02:40:14;;;;;;;9.75;3.15;;;17.60;99.90;;;18.06;92.01;100946.78;5036044;28;20245;-72
2021/08/20 02:42:48;;;;;;;9.25;3.15;;;17.60;99.90;;;18.02;92.46;100942.63;5028731;28;20254;-71
2021/08/20 02:45:16;;;;;;;8.48;3.28;;;17.60;99.90;;;18.02;92.35;100950.56;5032367;28;20210;-69
2021/08/20 02:47:42;;;;;;;7.25;2.83;;;17.60;99.90;;;18.04;92.36;100943.38;5016170;28;20194;-69
2021/08/20 02:50:10;;;;;;;8.90;2.88;;;17.60;99.90;;;18.06;92.60;100945.91;5001913;28;20305;-71
2021/08/20 02:52:39;;;;;;;10.63;3.22;;;17.60;99.90;;;18.05;92.67;100947.72;5005667;28;20221;-70
2021/08/20 02:55:07;;;;;;;8.40;3.00;;;17.60;99.90;;;18.05;92.41;100949.53;5011254;28;20237;-72
2021/08/20 02:57:39;;;;;;;8.07;2.92;;;17.60;99.90;;;18.05;92.45;100944.22;5010926;28;20213;-69
2021/08/20 03:00:08;;;;;;;9.32;3.38;;;17.60;99.90;;;18.04;92.49;100947.81;5013709;28;20245;-69
2021/08/20 03:02:35;;;;;;;8.13;3.25;;;17.60;99.90;;;18.04;92.23;100947.81;5014411;28;20620;-69
2021/08/20 03:05:06;;;;;;;8.50;3.30;;;17.60;99.90;;;18.05;92.49;100941.59;5021404;28;20725;-69
2021/08/20 03:07:33;;;;;;;8.65;3.38;;;17.60;99.90;;;18.05;92.71;100945.06;5013576;28;20190;-70
2021/08/20 03:10:01;;;;;;;9.77;3.50;;;17.60;99.90;;;18.04;92.52;100943.38;5021289;28;20213;-70
2021/08/20 03:12:30;;;;;;;9.95;3.50;;;17.60;99.90;;;18.03;92.14;100931.09;5013181;28;20190;-70
2021/08/20 03:14:57;;;;;;;11.20;3.75;;;17.60;99.90;;;18.03;92.23;100927.59;5007740;28;20194;-69
2021/08/20 03:17:29;;;;;;;9.27;3.80;;;17.60;99.90;;;18.02;92.22;100932.03;5021718;28;20225;-70
2021/08/20 03:19:56;;;;;;;10.07;3.70;;;17.60;99.90;;;18.03;92.33;100935.53;5021516;28;20209;-72
2021/08/20 03:22:23;;;;;;;9.85;3.60;;;17.60;99.90;;;18.03;92.31;100938.19;5019116;28;20207;-68
2021/08/20 03:24:50;;;;;;;9.32;3.60;;;17.60;99.90;;;18.02;92.11;100936.50;5019293;28;20296;-71
2021/08/20 03:27:19;;;;;;;8.30;3.17;;;17.60;99.90;;;18.02;92.20;100939.13;5038588;28;20192;-70
2021/08/20 03:29:59;;;;;;;9.43;3.63;;;17.60;99.90;;;18.01;92.08;100948.03;5021361;28;20311;-70
2021/08/20 03:32:28;;;;;;;9.82;3.35;;;17.60;99.90;;;18.00;92.00;100944.50;5028034;28;20208;-71
2021/08/20 03:34:55;;;;;;;10.75;3.80;;;17.60;99.90;;;18.00;92.19;100954.28;5029438;28;20193;-69
2021/08/20 03:37:22;;;;;;;11.88;4.18;;;17.60;99.90;;;18.00;92.10;100952.47;5033437;28;20218;-69
2021/08/20 03:39:49;;;;;;;9.32;3.80;;;17.60;99.90;;;18.02;91.79;100947.09;5020425;28;20248;-70
2021/08/20 03:42:21;;;;;;;9.38;3.97;;;17.60;99.90;;;18.01;92.30;100948.88;5019621;28;20192;-70
2021/08/20 03:45:11;;;;;;;11.15;3.95;;;17.60;99.90;;;18.03;92.00;100951.44;4978875;28;20225;-70
2021/08/20 03:47:40;;;;;;;8.88;3.70;;;17.60;99.90;;;18.02;91.61;100949.75;5020078;28;20689;-70
2021/08/20 03:50:09;;;;;;;9.30;3.22;;;17.60;99.90;;;18.03;91.57;100948.78;5019307;28;20690;-70
2021/08/20 03:52:37;;;;;;;10.45;4.15;;;17.60;99.90;;;18.04;91.36;100955.75;5018299;28;20289;-69
2021/08/20 03:55:05;;;;;;;9.10;3.50;;;17.60;99.90;;;18.03;91.85;100957.59;5009765;28;20201;-70
2021/08/20 03:57:37;;;;;;;9.68;3.75;;;17.60;99.90;;;18.03;91.44;100957.59;4998805;28;20300;-69
2021/08/20 04:00:07;;;;;;;9.93;3.63;;;17.60;99.90;;;18.02;91.62;100947.91;5021076;28;20996;-70
2021/08/20 04:02:40;;;;;;;10.43;3.95;;;17.60;99.90;;;18.02;91.59;100952.38;5022831;28;20255;-70
2021/08/20 04:05:08;;;;;;;9.70;3.45;;;17.60;99.90;;;18.04;91.51;100958.41;5008120;28;20296;-69
2021/08/20 04:07:47;;;;;;;11.35;3.80;;;17.60;99.90;;;18.03;91.36;100957.59;5016727;28;20207;-70
2021/08/20 04:10:34;;;;;;;10.07;3.92;;;17.60;99.90;;;18.01;90.92;100953.31;5023715;28;20220;-71
2021/08/20 04:13:14;;;;;;;9.70;4.03;;;17.60;99.90;;;17.98;90.93;100951.72;5014358;28;20267;-70
2021/08/20 04:15:45;;;;;;;10.13;3.45;;;17.60;99.90;;;17.98;90.98;100956.16;5015018;28;20609;-69
2021/08/20 04:18:16;;;;;;;10.75;3.83;;;17.60;99.90;;;17.98;90.60;100961.47;5011553;28;20275;-70
2021/08/20 04:20:44;;;;;;;10.13;4.47;;;17.60;99.90;;;17.96;90.59;100960.72;5016864;28;20251;-71
2021/08/20 04:23:12;;;;;;;10.75;4.22;;;17.60;99.90;;;17.93;89.94;100968.84;5016644;28;20558;-69
2021/08/20 04:25:42;;;;;;;12.75;4.50;;;17.50;99.90;;;17.86;89.68;100967.53;5028993;28;20274;-68
2021/08/20 04:28:41;;;;;;;12.18;4.25;;;17.40;99.90;;;17.69;89.30;100970.41;5016337;28;20220;-70
2021/08/20 04:31:23;;;;;;;12.43;4.32;;;17.20;99.90;;;17.53;89.51;100968.69;5026972;28;20193;-71
2021/08/20 04:34:08;;;;;;;12.63;4.13;;;17.10;99.90;;;17.43;89.91;100964.06;5054891;28;20207;-71
2021/08/20 04:36:54;;;;;;;13.98;4.50;;;16.90;99.90;;;17.33;90.16;100965.56;5036699;28;20189;-71
2021/08/20 04:39:27;;;;;;;10.77;4.32;;;16.70;99.90;;;17.27;91.03;100971.22;5038072;28;20225;-68
2021/08/20 04:42:05;;;;;;;13.23;4.65;;;16.70;99.90;;;17.23;91.03;100965.25;5026027;28;20233;-69
2021/08/20 04:44:48;;;;;;;11.77;4.43;;;16.60;99.90;;;17.20;91.38;100981.31;5010487;28;20281;-70
2021/08/20 04:47:28;;;;;;;13.10;4.65;;;16.50;99.90;;;17.17;91.65;100978.88;5016649;28;20207;-69
2021/08/20 04:50:13;;;;;;;11.13;4.15;;;16.50;99.90;;;17.16;91.53;100985.09;5016244;28;20308;-68
2021/08/20 04:52:52;;;;;;;11.68;4.40;;;16.50;99.90;;;17.14;92.02;100975.56;5016278;28;20232;-70
2021/08/20 04:55:29;;;;;;;10.70;4.35;;;16.50;99.90;;;17.10;92.20;100974.91;5015211;28;20205;-69
2021/08/20 04:57:56;;;;;;;11.73;4.60;;;16.40;99.90;;;17.09;92.26;100978.50;5008580;28;20209;-71
2021/08/20 05:00:24;;;;;;;11.38;4.65;;;16.40;99.90;;;17.09;92.38;100972.34;4997689;28;20194;-70
2021/08/20 05:02:51;;;;;;;11.88;4.90;;;16.50;99.90;;;17.11;92.80;100968.66;5003212;28;20291;-70
2021/08/20 05:05:18;;;;;;;11.55;4.82;;;16.40;99.90;;;17.12;93.01;100978.31;5007430;28;20205;-69
2021/08/20 05:07:45;;;;;;;12.95;5.25;;;16.40;99.90;;;17.13;92.71;100972.06;5012695;28;20190;-68
2021/08/20 05:10:13;;;;;;;12.82;4.20;;;16.40;99.90;;;17.12;93.16;100977.44;5001940;28;20214;-67
2021/08/20 05:12:41;;;;;;;12.90;4.72;;;16.50;99.90;;;17.12;93.43;100973.00;5010622;28;20286;-72
2021/08/20 05:15:10;;;;;;;10.77;4.60;;;16.50;99.90;;;17.12;93.39;100956.28;5015808;28;20217;-69
2021/08/20 05:17:38;;;;;;;9.70;4.03;;;16.50;99.90;;;17.14;93.54;100971.13;5014878;28;20206;-71
2021/08/20 05:20:07;;;;;;;14.00;5.05;;;16.50;99.90;;;17.16;93.53;100974.50;5024293;28;20244;-71
2021/08/20 05:22:45;;;;;;;12.00;4.85;;;16.50;99.90;;;17.18;93.86;100982.38;5004252;28;20201;-69
2021/08/20 05:25:12;;;;;;;12.35;5.05;;;16.50;99.90;;;17.15;93.55;100979.91;5023486;28;20403;-70
2021/08/20 05:27:39;;;;;;;11.10;4.45;;;16.50;99.90;;;17.17;93.74;100978.88;5034181;28;20219;-70
2021/08/20 05:30:07;;;;;;;12.80;4.90;;;16.50;99.90;;;17.20;94.15;100986.63;5034070;28;20213;-71
2021/08/20 05:32:34;;;;;;;12.65;5.20;;;16.60;99.90;;;17.20;94.13;100988.41;5003936;28;20288;-70
2021/08/20 05:35:02;;;;;;;11.23;4.45;;;16.60;99.90;;;17.21;93.95;100990.13;5011559;28;20193;-70
2021/08/20 05:37:29;;;;;;;12.35;5.25;;;16.60;99.90;;;17.23;93.73;100985.59;5021774;28;20372;-69
2021/08/20 05:39:56;;;;;;;13.57;5.32;;;16.60;99.90;;;17.28;94.11;100971.13;5005150;28;20690;-70
2021/08/20 05:42:23;;;;;;;13.25;5.25;;;16.70;99.90;;;17.32;93.79;100983.22;5019679;28;20198;-69
2021/08/20 05:44:50;;;;;;;13.40;5.20;;;16.70;99.90;;;17.34;93.69;100986.66;5013135;28;20186;-70
2021/08/20 05:47:17;;;;;;;12.63;5.32;;;16.60;99.90;;;17.36;93.91;100986.56;5003592;28;20242;-68
2021/08/20 05:49:44;;;;;;;12.90;5.43;;;16.70;99.90;;;17.40;93.98;100982.75;5014020;28;20629;-69
2021/08/20 05:52:12;;;;;;;14.65;6.05;;;16.70;99.90;;;17.43;93.75;100986.06;5031593;28;20728;-70
2021/08/20 05:54:38;;;;;;;12.77;5.25;;;16.80;99.90;;;17.47;94.07;100990.28;5023698;28;20189;-70
2021/08/20 05:57:06;;;;;;;13.38;5.70;;;16.80;99.90;;;17.50;93.71;100994.50;5041032;28;20185;-70
2021/08/20 05:59:33;;;;;;;13.82;6.28;;;16.80;99.90;;;17.53;93.63;100989.88;5044510;28;20209;-67
2021/08/20 06:02:00;;;;;;;12.20;5.50;;;16.80;99.90;;;17.56;93.83;100988.84;5014300;28;20197;-68
2021/08/20 06:04:27;;;;;;;12.68;5.55;;;16.80;99.90;;;17.60;94.02;100989.53;5014264;28;20198;-72
2021/08/20 06:06:54;;;;;;;12.30;5.40;;;16.90;99.90;;;17.65;94.18;100993.56;5002273;28;20201;-71
2021/08/20 06:09:24;;;;;;;17.08;6.57;;;17.00;99.90;;;17.68;94.19;100989.88;5012805;28;20224;-66
2021/08/20 06:11:51;;;;;;;13.93;5.72;;;17.00;99.90;;;17.70;94.10;100985.34;5010171;28;20194;-69
2021/08/20 06:14:18;;;;;;;18.13;7.18;;;17.10;99.90;;;17.74;94.15;100993.00;5014061;28;20284;-70
2021/08/20 06:16:45;;;;;;;15.05;6.63;;;17.20;99.90;;;17.76;93.98;100995.53;5022278;28;20193;-70
2021/08/20 06:19:12;;;;;;;18.25;7.68;;;17.20;99.90;;;17.83;94.21;101002.16;5029809;28;20279;-70
2021/08/20 06:21:39;;;;;;;15.90;7.18;;;17.30;99.90;;;17.86;94.24;101002.81;5025545;28;20192;-69
2021/08/20 06:24:06;;;;;;;17.85;7.45;;;17.40;99.90;;;17.91;94.29;101000.75;5014989;28;20224;-70
2021/08/20 06:26:34;;;;;;;18.17;8.25;;;17.50;99.90;;;17.95;94.15;100996.09;5022245;28;20205;-69
2021/08/20 06:29:01;;;;;;;18.65;8.00;;;17.60;99.90;;;18.00;94.23;100994.00;5029460;28;20292;-69
2021/08/20 06:31:28;;;;;;;18.63;8.35;;;17.60;99.90;;;18.04;93.66;101001.66;5007943;28;20208;-66
2021/08/20 06:33:58;;;;;;;16.25;7.80;;;17.60;99.90;;;18.08;93.85;101007.63;5002312;28;20196;-66
2021/08/20 06:36:24;;;;;;;18.38;8.52;;;17.70;99.90;;;18.11;93.70;101004.75;5021786;28;20194;-66
2021/08/20 06:38:52;;;;;;;19.55;8.27;;;17.80;99.90;;;18.12;93.19;101004.66;5022193;28;20221;-67
2021/08/20 06:41:18;;;;;;;21.20;8.75;;;17.80;99.90;;;18.13;93.43;100995.78;5012173;28;20189;-67
2021/08/20 06:43:48;;;;;;;21.27;8.75;;;17.80;99.90;;;18.19;93.41;100997.16;5001657;28;20733;-67
2021/08/20 06:46:15;;;;;;;22.50;9.10;;;17.90;99.90;;;18.24;93.21;100993.28;4995526;28;20194;-67
2021/08/20 06:48:41;;;;;;;19.77;9.07;;;17.90;99.90;;;18.29;92.79;100996.47;5027915;28;20209;-66
2021/08/20 06:51:13;;;;;;;20.17;8.68;;;18.00;99.90;;;18.32;92.57;100996.28;5013806;28;20215;-68
2021/08/20 06:53:40;;;;;;;20.50;8.93;;;18.10;99.90;;;18.34;92.72;100994.38;5026274;28;20194;-67
2021/08/20 06:56:07;;;;;;;20.73;9.00;;;18.10;99.90;;;18.38;92.32;100992.38;5024372;28;20729;-69
2021/08/20 06:58:34;;;;;;;18.77;9.05;;;18.20;99.90;;;18.40;92.62;100990.53;5013095;28;20272;-68
2021/08/20 07:01:03;;;;;;;21.70;9.13;;;18.20;99.90;;;18.46;92.24;100998.06;5029062;28;20270;-68
2021/08/20 07:03:30;;;;;;;20.92;10.00;;;18.20;99.90;;;18.50;92.04;100999.56;5007758;28;20189;-67
2021/08/20 07:05:57;;;;;;;20.38;9.13;;;18.30;99.90;;;18.55;91.66;100992.16;5015976;28;20197;-66
2021/08/20 07:08:23;;;;;;;19.52;9.98;;;18.30;99.90;;;18.60;91.58;101004.16;5024739;28;20224;-68
2021/08/20 07:10:50;;;;;;;20.02;10.68;;;18.50;99.90;;;18.67;91.08;101004.63;5033439;28;20193;-68
2021/08/20 07:13:17;;;;;;;23.88;10.95;;;18.50;99.90;;;18.72;90.95;101002.50;5016028;28;20209;-65
2021/08/20 07:15:44;;;;;;;21.52;10.82;;;18.60;99.90;;;18.76;90.42;101001.34;5015821;28;20722;-70
2021/08/20 07:18:12;;;;;;;22.08;10.48;;;18.60;99.90;;;18.77;90.32;101013.66;5032385;28;20709;-68
2021/08/20 07:20:38;;;;;;;21.83;10.88;;;18.60;99.90;;;18.71;89.59;101006.09;5032990;28;20196;-67
2021/08/20 07:23:05;;;;;;;20.80;11.00;;;18.60;99.90;;;18.67;89.41;101010.75;5017180;28;20560;-67
2021/08/20 07:25:32;;;;;;;22.80;11.75;;;18.60;99.90;;;18.67;89.02;101010.75;5014031;28;20193;-68
2021/08/20 07:42:56;;;;;;;23.58;11.88;;;18.30;99.90;;;18.20;86.46;101018.25;5111338;27;20804;-66
2021/08/20 07:45:23;;;;;;;22.65;11.05;;;18.20;99.90;;;18.15;87.00;101032.78;5093088;28;20677;-67
2021/08/20 07:47:51;;;;;;;23.42;11.38;;;18.10;99.90;;;18.10;87.37;101042.81;5109726;28;20198;-71
2021/08/20 07:50:18;;;;;;;18.27;8.40;;;18.00;99.90;;;18.00;87.49;101047.00;5072880;28;20215;-69
2021/08/20 07:52:45;;;;;;;17.48;8.30;;;17.70;99.90;;;17.78;87.83;101043.97;5070396;28;20189;-65
2021/08/20 07:55:13;;;;;;;17.77;8.13;;;17.40;99.90;;;17.59;88.38;101048.69;5072529;28;20199;-69
2021/08/20 07:57:49;;;;;;;14.98;6.97;;;17.20;99.90;;;17.44;88.71;101048.66;5068897;28;20195;-67
2021/08/20 08:00:21;;;;;;;17.48;6.85;;;17.00;99.90;;;17.38;89.36;101046.34;5069495;28;20560;-67
2021/08/20 08:02:48;;;;;;;13.95;6.05;;;17.00;99.90;;;17.37;89.46;101046.44;5071271;28;20318;-68
2021/08/20 08:05:14;;;;;;;14.25;6.57;;;17.00;99.90;;;17.34;89.47;101052.81;5072081;28;20675;-69
2021/08/20 08:07:42;;;;;;;14.98;6.05;;;16.90;99.90;;;17.34;89.51;101058.09;5070170;28;20572;-68
2021/08/20 08:10:10;;;;;;;17.13;7.40;;;16.90;99.90;;;17.36;89.46;101053.53;5069651;28;20223;-69
2021/08/20 08:12:38;;;;;;;14.95;7.15;;;16.90;99.90;;;17.38;89.31;101042.88;5071299;28;20185;-68
2021/08/20 08:15:07;;;;;;;16.20;6.50;;;17.00;99.90;;;17.36;88.89;101060.66;5065379;28;20193;-70
2021/08/20 08:17:35;;;;;;;14.13;6.05;;;17.00;99.90;;;17.36;88.73;101065.94;5067952;28;20672;-68
2021/08/20 08:20:03;;;;;;;15.70;6.60;;;17.10;99.90;;;17.37;88.74;101064.97;5062137;28;20231;-67
2021/08/20 08:22:30;;;;;;;16.33;6.78;;;17.10;99.90;;;17.38;88.88;101064.88;5084020;28;20700;-68
2021/08/20 08:24:57;;;;;;;15.30;6.80;;;17.20;99.90;;;17.37;88.42;101063.19;5069186;28;20559;-67
2021/08/20 08:27:24;;;;;;;16.27;6.28;;;17.20;99.90;;;17.39;88.45;101065.75;5069443;28;20192;-68
2021/08/20 08:29:50;;;;;;;15.52;6.13;;;17.20;99.90;;;17.38;88.27;101064.06;5068961;28;20704;-69
2021/08/20 08:32:17;;;;;;;13.52;6.32;;;17.20;99.90;;;17.37;88.15;101063.19;5069621;28;20192;-68
2021/08/20 08:34:45;;;;;;;15.57;6.65;;;17.20;99.90;;;17.40;88.14;101062.13;5068596;28;20192;-67
2021/08/20 08:37:13;;;;;;;15.70;6.80;;;17.30;99.90;;;17.40;88.28;101063.00;5070233;28;20188;-67
2021/08/20 08:39:40;;;;;;;14.32;6.75;;;17.20;99.90;;;17.40;87.73;101063.00;5068085;28;20232;-66
2021/08/20 08:42:07;;;;;;;15.98;6.75;;;17.30;99.90;;;17.42;87.83;101077.00;5067345;28;20712;-69
2021/08/20 08:44:35;;;;;;;17.48;7.28;;;17.30;99.90;;;17.42;87.50;101071.72;5068913;28;20204;-68
2021/08/20 08:47:05;;;;;;;14.60;6.82;;;17.30;99.90;;;17.47;87.33;101085.56;5065748;28;20212;-71
2021/08/20 08:49:34;;;;;;;14.75;6.93;;;17.30;99.90;;;17.48;87.07;101081.94;5069931;28;20208;-67
2021/08/20 08:52:03;;;;;;;14.63;6.75;;;17.30;99.90;;;17.53;87.20;101085.16;5067729;28;20209;-69
2021/08/20 08:54:29;;;;;;;14.93;6.88;;;17.40;99.90;;;17.57;86.78;101092.91;5070631;28;20576;-69
2021/08/20 08:56:56;;;;;;;17.00;7.47;;;17.40;99.90;;;17.58;86.56;101092.84;5040574;28;20193;-70
2021/08/20 08:59:23;;;;;;;14.48;6.72;;;17.40;99.90;;;17.63;86.57;101108.44;5052809;28;20213;-68
2021/08/20 09:01:50;;;;;;;16.95;7.78;;;17.40;99.90;;;17.70;86.85;101113.28;5053978;28;20580;-68
2021/08/20 09:04:21;;;;;;;15.05;7.32;;;17.50;99.90;;;17.77;86.47;101111.09;5052209;28;20208;-69
2021/08/20 09:06:51;;;;;;;15.73;7.05;;;17.60;99.90;;;17.83;86.17;101123.97;5062074;28;20247;-69
2021/08/20 09:09:21;;;;;;;16.08;6.88;;;17.60;99.90;;;17.86;86.17;101115.84;5057060;28;20224;-68
2021/08/20 09:11:54;;;;;;;14.77;6.20;;;17.70;99.90;;;17.88;86.04;101114.81;5067021;28;20203;-69
2021/08/20 09:14:29;;;;;;;11.90;6.03;;;17.70;99.90;;;17.92;86.03;101126.91;5053497;28;20190;-69
2021/08/20 09:16:56;;;;;;;14.30;6.40;;;17.80;99.90;;;17.96;85.62;101117.84;5083612;28;20201;-68
2021/08/20 09:19:25;;;;;;;11.25;5.22;;;17.90;99.90;;;18.03;85.80;101128.91;5041585;28;20217;-67
2021/08/20 09:21:54;;;;;;;11.68;4.97;;;17.90;99.90;;;18.06;85.58;101118.13;5051712;28;20218;-68
2021/08/20 09:24:36;;;;;;;12.38;5.60;;;18.00;99.90;;;18.15;85.18;101114.91;5053058;28;20778;-68
2021/08/20 09:27:27;;;;;;;13.15;5.32;;;18.10;99.90;;;18.20;85.07;101116.31;5049774;28;20648;-67
2021/08/20 09:30:06;;;;;;;12.18;4.65;;;18.10;99.90;;;18.23;85.04;101112.63;5051036;28;20626;-67
2021/08/20 09:32:33;;;;;;;12.88;4.63;;;18.20;99.90;;;18.27;85.21;101116.81;5049096;28;20189;-69
2021/08/20 09:35:00;;;;;;;12.18;5.43;;;18.30;99.90;;;18.29;84.74;101125.47;5055163;28;20197;-67
2021/08/20 09:37:30;;;;;;;12.70;5.30;;;18.30;99.90;;;18.27;84.75;101125.59;5046336;28;21111;-68
2021/08/20 09:40:02;;;;;;;10.20;4.40;;;18.20;99.90;;;18.25;84.76;101116.03;5042663;28;20208;-68
2021/08/20 09:42:29;;;;;;;12.25;5.03;;;18.20;99.90;;;18.23;84.68;101118.78;5066342;28;20227;-67
2021/08/20 09:45:18;;;;;;;10.15;4.00;;;18.20;99.90;;;18.24;84.66;101109.88;5052511;28;20197;-69
2021/08/20 09:47:48;;;;;;;9.15;3.63;;;18.20;99.90;;;18.29;84.34;101110.44;5044986;28;20199;-69
2021/08/20 09:50:16;;;;;;;8.77;3.88;;;18.30;99.90;;;18.43;84.32;101109.59;5055421;28;20214;-69
2021/08/20 09:52:44;;;;;;;6.45;2.53;;;18.50;99.90;;;18.59;83.88;101105.00;5053763;28;20270;-69
2021/08/20 09:55:13;;;;;;;8.20;2.60;;;18.70;99.90;;;18.77;83.25;101116.25;5052981;28;20204;-68
2021/08/20 10:09:45;;;;;;;8.75;3.15;;;19.10;99.90;;;18.70;80.99;101107.84;5076020;27;20904;-67
2021/08/20 10:12:18;;;;;;;10.65;3.95;;;19.10;99.90;;;18.91;81.05;101108.22;5065283;28;21108;-67
2021/08/20 10:14:47;;;;;;;8.38;2.72;;;19.10;99.90;;;19.00;81.03;101103.19;5064397;28;20215;-72
2021/08/20 10:17:16;;;;;;;6.00;1.92;;;19.20;99.90;;;19.14;80.80;101108.41;5068786;28;20257;-70
2021/08/20 10:19:43;;;;;;;11.43;3.72;;;19.40;99.90;;;19.26;80.30;101112.91;5066415;28;20230;-69
2021/08/20 10:22:11;;;;;;;8.15;2.38;;;19.50;99.90;;;19.33;80.15;101108.91;5067288;28;20200;-71
2021/08/20 10:24:39;;;;;;;6.55;2.22;;;19.60;99.90;;;19.43;79.82;101111.78;5066788;28;20196;-70
2021/08/20 10:27:10;;;;;;;7.90;2.60;;;19.70;99.90;;;19.53;78.89;101116.38;5065549;28;20197;-72
2021/08/20 10:29:45;;;;;;;8.25;2.85;;;19.80;99.90;;;19.54;79.23;101112.75;5067375;28;20795;-71
2021/08/20 10:32:12;;;;;;;8.40;2.60;;;19.80;99.90;;;19.51;78.82;101114.78;5065474;28;20202;-70
2021/08/20 10:34:41;;;;;;;7.40;2.80;;;19.90;99.90;;;19.54;78.97;101117.25;5065434;28;20267;-72
2021/08/20 10:37:12;;;;;;;8.23;2.60;;;19.90;99.90;;;19.66;78.99;101117.25;5067068;28;20200;-70
2021/08/20 10:39:43;;;;;;;9.77;3.15;;;20.00;99.90;;;19.76;78.54;101113.00;5066835;28;20226;-68
2021/08/20 10:42:14;;;;;;;11.88;4.35;;;20.10;99.90;;;19.88;77.34;101116.59;5065784;28;20189;-70
2021/08/20 10:44:44;;;;;;;9.70;3.63;;;20.20;99.90;;;19.90;77.58;101104.94;5062519;28;20188;-69